createdAt,value
2018-03-18T00:00:54.512Z,8.80
2018-03-18T00:03:22.811Z,8.63
2018-03-18T00:05:51.127Z,6.37
2018-03-18T00:08:19.464Z,9.17
2018-03-18T00:10:47.883Z,7.90
2018-03-18T00:13:16.215Z,8.73
2018-03-18T00:15:45.338Z,6.67
2018-03-18T00:18:13.675Z,7.73
2018-03-18T00:20:42.074Z,8.57
2018-03-18T00:23:10.420Z,6.43
2018-03-18T00:25:38.718Z,6.10
2018-03-18T00:28:07.044Z,6.83
2018-03-18T00:30:35.409Z,7.60
2018-03-18T00:33:03.729Z,6.03
2018-03-18T00:35:32.179Z,6.40
2018-03-18T00:38:00.492Z,6.13
2018-03-18T00:40:28.797Z,7.20
2018-03-18T00:42:57.228Z,6.70
2018-03-18T00:45:26.313Z,7.33
2018-03-18T00:47:55.028Z,8.27
2018-03-18T00:50:23.346Z,7.50
2018-03-18T00:52:51.664Z,6.73
2018-03-18T00:55:20.064Z,6.80
2018-03-18T00:57:48.404Z,7.60
2018-03-18T01:00:17.641Z,7.60
2018-03-18T01:02:45.983Z,6.70
2018-03-18T01:05:14.347Z,7.90
2018-03-18T01:07:42.724Z,5.83
2018-03-18T01:10:11.251Z,5.90
2018-03-18T01:12:39.651Z,6.80
2018-03-18T01:15:07.987Z,6.53
2018-03-18T01:17:36.396Z,7.27
2018-03-18T01:20:04.707Z,7.10
2018-03-18T01:22:32.995Z,8.03
2018-03-18T01:25:01.363Z,7.20
2018-03-18T01:27:29.667Z,6.17
2018-03-18T01:29:58.017Z,6.13
2018-03-18T01:32:27.085Z,5.93
2018-03-18T01:34:55.655Z,7.60
2018-03-18T01:37:24.112Z,6.63
2018-03-18T01:39:53.192Z,6.80
2018-03-18T01:42:21.531Z,6.73
2018-03-18T01:44:49.872Z,5.60
2018-03-18T01:47:18.202Z,7.00
2018-03-18T01:49:46.588Z,6.33
2018-03-18T01:52:15.745Z,7.90
2018-03-18T01:54:44.121Z,6.73
2018-03-18T01:57:13.260Z,5.63
2018-03-18T01:59:41.550Z,6.90
2018-03-18T02:02:10.202Z,5.90
2018-03-18T02:04:38.551Z,5.73
2018-03-18T02:07:06.850Z,7.30
2018-03-18T02:09:35.160Z,5.10
2018-03-18T02:12:04.296Z,6.97
2018-03-18T02:14:32.587Z,8.10
2018-03-18T02:17:00.896Z,6.30
2018-03-18T02:19:29.239Z,6.97
2018-03-18T02:21:58.308Z,7.67
2018-03-18T02:24:26.683Z,4.90
2018-03-18T02:26:55.037Z,6.87
2018-03-18T02:29:24.100Z,6.40
2018-03-18T02:31:52.410Z,6.50
2018-03-18T02:34:20.759Z,7.43
2018-03-18T02:36:49.140Z,7.23
2018-03-18T02:39:17.459Z,5.20
2018-03-18T02:41:45.811Z,7.33
2018-03-18T02:44:14.202Z,7.30
2018-03-18T02:46:42.533Z,6.60
2018-03-18T02:49:10.897Z,6.10
2018-03-18T02:51:39.229Z,7.07
2018-03-18T02:54:08.446Z,6.53
2018-03-18T02:56:36.783Z,7.83
2018-03-18T02:59:05.088Z,7.60
2018-03-18T03:01:33.400Z,5.97
2018-03-18T03:04:01.736Z,5.40
2018-03-18T03:06:30.923Z,6.47
2018-03-18T03:08:59.251Z,7.43
2018-03-18T03:11:27.545Z,7.60
2018-03-18T03:13:55.904Z,7.37
2018-03-18T03:16:24.252Z,5.70
2018-03-18T03:18:52.702Z,7.10
2018-03-18T03:21:21.794Z,7.47
2018-03-18T03:23:50.180Z,6.03
2018-03-18T03:26:19.394Z,6.67
2018-03-18T03:28:47.741Z,6.70
2018-03-18T03:31:16.063Z,7.40
2018-03-18T03:33:44.576Z,5.57
2018-03-18T03:36:13.687Z,5.70
2018-03-18T03:38:42.861Z,6.23
2018-03-18T03:41:11.187Z,6.93
2018-03-18T03:43:40.271Z,6.73
2018-03-18T03:46:08.579Z,8.20
2018-03-18T03:48:36.883Z,7.10
2018-03-18T03:51:06.118Z,6.23
2018-03-18T03:53:34.415Z,7.40
2018-03-18T03:56:02.708Z,6.27
2018-03-18T03:58:31.027Z,6.90
2018-03-18T04:00:59.319Z,5.83
2018-03-18T04:03:27.624Z,7.63
2018-03-18T04:05:55.959Z,7.27
2018-03-18T04:08:24.272Z,6.43
2018-03-18T04:10:52.607Z,6.40
2018-03-18T04:13:21.717Z,6.57
2018-03-18T04:15:50.886Z,5.47
2018-03-18T04:18:19.256Z,7.60
2018-03-18T04:20:48.331Z,5.97
2018-03-18T04:23:17.426Z,6.17
2018-03-18T04:25:45.809Z,7.00
2018-03-18T04:28:14.221Z,6.40
2018-03-18T04:30:42.588Z,6.00
2018-03-18T04:33:10.969Z,5.83
2018-03-18T04:35:39.303Z,6.80
2018-03-18T04:38:08.379Z,7.17
2018-03-18T04:40:36.766Z,6.93
2018-03-18T04:43:05.086Z,6.20
2018-03-18T04:45:33.388Z,5.77
2018-03-18T04:48:02.456Z,4.73
2018-03-18T04:50:30.766Z,5.53
2018-03-18T04:52:59.075Z,5.53
2018-03-18T04:55:28.150Z,4.33
2018-03-18T04:57:56.634Z,5.10
2018-03-18T05:00:24.990Z,6.33
2018-03-18T05:02:53.318Z,5.47
2018-03-18T05:05:21.663Z,6.30
2018-03-18T05:07:50.036Z,5.90
2018-03-18T05:10:19.269Z,6.13
2018-03-18T05:12:47.695Z,7.40
2018-03-18T05:15:16.041Z,4.63
2018-03-18T05:17:44.449Z,6.00
2018-03-18T05:20:12.748Z,6.23
2018-03-18T05:22:41.179Z,5.53
2018-03-18T05:25:09.530Z,6.23
2018-03-18T05:27:37.862Z,5.47
2018-03-18T05:30:06.280Z,5.00
2018-03-18T05:32:35.356Z,6.40
2018-03-18T05:35:03.732Z,5.93
2018-03-18T05:37:32.036Z,4.77
2018-03-18T05:40:00.456Z,5.30
2018-03-18T05:42:28.758Z,7.10
2018-03-18T05:44:57.889Z,6.03
2018-03-18T05:47:26.265Z,5.23
2018-03-18T05:49:55.323Z,6.70
2018-03-18T05:52:23.707Z,5.33
2018-03-18T05:54:52.123Z,5.10
2018-03-18T05:57:20.460Z,6.00
2018-03-18T05:59:48.826Z,6.50
2018-03-18T06:02:18.011Z,6.47
2018-03-18T06:04:46.412Z,6.03
2018-03-18T06:07:14.763Z,6.40
2018-03-18T06:09:43.097Z,5.80
2018-03-18T06:12:11.418Z,5.20
2018-03-18T06:14:40.490Z,5.37
2018-03-18T06:17:08.788Z,6.00
2018-03-18T06:19:37.589Z,6.30
2018-03-18T06:22:06.661Z,4.00
2018-03-18T06:24:34.980Z,6.47
2018-03-18T06:27:03.290Z,5.07
2018-03-18T06:29:32.681Z,4.20
2018-03-18T06:32:01.132Z,3.50
2018-03-18T06:34:29.455Z,5.83
2018-03-18T06:36:57.751Z,6.43
2018-03-18T06:39:26.053Z,2.87
2018-03-18T06:41:54.407Z,6.47
2018-03-18T06:44:22.776Z,5.63
2018-03-18T06:46:51.079Z,5.73
2018-03-18T06:49:19.448Z,5.10
2018-03-18T06:51:47.828Z,5.50
2018-03-18T06:54:16.164Z,4.87
2018-03-18T06:56:44.756Z,4.17
2018-03-18T06:59:13.975Z,5.10
2018-03-18T07:01:42.353Z,4.77
2018-03-18T07:04:10.673Z,4.60
2018-03-18T07:06:39.016Z,5.33
2018-03-18T07:09:08.100Z,4.40
2018-03-18T07:11:36.415Z,4.80
2018-03-18T07:14:04.734Z,3.90
2018-03-18T07:16:33.064Z,5.00
2018-03-18T07:19:01.396Z,4.40
2018-03-18T07:21:29.692Z,5.30
2018-03-18T07:23:58.052Z,4.40
2018-03-18T07:26:27.133Z,4.50
2018-03-18T07:28:55.465Z,4.73
2018-03-18T07:31:23.779Z,3.80
2018-03-18T07:33:52.102Z,4.20
2018-03-18T07:36:20.476Z,5.10
2018-03-18T07:38:48.786Z,4.53
2018-03-18T07:41:17.089Z,5.10
2018-03-18T07:43:45.412Z,3.90
2018-03-18T07:46:13.878Z,4.60
2018-03-18T07:48:42.266Z,3.23
2018-03-18T07:51:11.376Z,3.90
2018-03-18T07:53:39.753Z,4.80
2018-03-18T07:56:08.115Z,3.90
2018-03-18T07:58:36.603Z,2.97
2018-03-18T08:01:05.010Z,3.90
2018-03-18T08:03:33.431Z,4.33
2018-03-18T08:06:01.764Z,3.83
2018-03-18T08:08:30.080Z,3.53
2018-03-18T08:10:58.808Z,3.30
2018-03-18T08:13:27.118Z,3.80
2018-03-18T08:15:55.431Z,4.60
2018-03-18T08:18:23.731Z,4.07
2018-03-18T08:20:52.164Z,4.37
2018-03-18T08:23:20.534Z,2.87
2018-03-18T08:25:48.855Z,3.23
2018-03-18T08:28:17.161Z,4.77
2018-03-18T08:30:45.477Z,4.70
2018-03-18T08:33:14.564Z,4.80
2018-03-18T08:35:43.036Z,4.80
2018-03-18T08:38:11.375Z,4.40
2018-03-18T08:40:39.699Z,4.50
2018-03-18T08:43:08.046Z,3.47
2018-03-18T08:45:37.148Z,3.87
2018-03-18T08:48:06.283Z,4.33
2018-03-18T08:50:34.644Z,3.17
2018-03-18T08:53:03.817Z,3.60
2018-03-18T08:55:32.139Z,3.90
2018-03-18T08:58:01.208Z,4.13
2018-03-18T09:00:29.657Z,4.27
2018-03-18T09:02:58.731Z,3.97
2018-03-18T09:05:27.195Z,4.40
2018-03-18T09:07:55.558Z,3.63
2018-03-18T09:10:24.647Z,3.80
2018-03-18T09:12:53.062Z,3.80
2018-03-18T09:15:21.388Z,4.23
2018-03-18T09:17:49.736Z,3.67
2018-03-18T09:20:18.794Z,3.80
2018-03-18T09:22:47.150Z,3.50
2018-03-18T09:25:15.496Z,3.77
2018-03-18T09:27:43.882Z,4.70
2018-03-18T09:30:12.235Z,4.10
2018-03-18T09:32:40.559Z,3.90
2018-03-18T09:35:08.982Z,2.93
2018-03-18T09:37:37.301Z,3.40
2018-03-18T09:40:05.650Z,4.10
2018-03-18T09:42:33.976Z,3.80
2018-03-18T09:45:02.290Z,4.33
2018-03-18T09:47:30.672Z,3.17
2018-03-18T09:49:58.982Z,3.87
2018-03-18T09:52:27.371Z,3.87
2018-03-18T09:54:55.736Z,4.83
2018-03-18T09:57:24.084Z,3.97
2018-03-18T09:59:52.633Z,4.20
2018-03-18T10:02:20.975Z,3.63
2018-03-18T10:04:49.306Z,3.30
2018-03-18T10:07:17.717Z,3.90
2018-03-18T10:09:46.017Z,4.30
2018-03-18T10:12:14.382Z,3.60
2018-03-18T10:14:42.812Z,3.80
2018-03-18T10:17:11.154Z,3.40
2018-03-18T10:19:39.528Z,2.83
2018-03-18T10:22:08.629Z,3.70
2018-03-18T10:24:37.918Z,4.57
2018-03-18T10:27:06.256Z,3.97
2018-03-18T10:29:34.662Z,3.60
2018-03-18T10:32:02.978Z,3.83
2018-03-18T10:34:31.281Z,4.40
2018-03-18T10:36:59.610Z,4.40
2018-03-18T10:39:28.750Z,3.60
2018-03-18T10:41:57.171Z,4.47
2018-03-18T10:44:25.485Z,3.50
2018-03-18T10:46:53.877Z,4.43
2018-03-18T10:49:22.216Z,2.87
2018-03-18T10:51:50.511Z,2.90
2018-03-18T10:54:18.960Z,4.00
2018-03-18T10:56:47.274Z,4.13
2018-03-18T10:59:15.605Z,4.03
2018-03-18T11:01:49.061Z,3.97
2018-03-18T11:04:18.113Z,3.70
2018-03-18T11:06:46.423Z,4.00
2018-03-18T11:09:16.451Z,3.27
2018-03-18T11:11:44.765Z,3.10
2018-03-18T11:14:13.088Z,3.50
2018-03-18T11:16:41.414Z,3.67
2018-03-18T11:19:09.765Z,2.70
2018-03-18T11:21:38.102Z,3.60
2018-03-18T11:24:06.454Z,3.40
2018-03-18T11:26:34.761Z,3.20
2018-03-18T11:29:03.100Z,4.67
2018-03-18T11:31:31.404Z,3.40
2018-03-18T11:34:00.500Z,2.60
2018-03-18T11:36:28.794Z,3.00
2018-03-18T11:38:57.956Z,3.70
2018-03-18T11:41:26.268Z,3.47
2018-03-18T11:43:54.567Z,2.07
2018-03-18T11:46:22.900Z,3.47
2018-03-18T11:48:51.956Z,3.40
2018-03-18T11:51:20.362Z,3.07
2018-03-18T11:53:48.669Z,2.70
2018-03-18T11:56:17.096Z,2.73
2018-03-18T11:58:45.408Z,2.90
2018-03-18T12:01:13.733Z,4.17
2018-03-18T12:03:42.144Z,2.83
2018-03-18T12:06:10.510Z,4.37
2018-03-18T12:09:03.512Z,2.93
2018-03-18T12:11:32.603Z,3.20
2018-03-18T12:14:01.813Z,3.67
2018-03-18T12:16:30.124Z,3.70
2018-03-18T12:18:59.197Z,2.70
2018-03-18T12:21:27.507Z,3.17
2018-03-18T12:23:56.588Z,3.20
2018-03-18T12:26:24.959Z,2.90
2018-03-18T12:28:53.290Z,2.67
2018-03-18T12:31:21.583Z,3.10
2018-03-18T12:33:49.921Z,3.73
2018-03-18T12:36:18.220Z,3.67
2018-03-18T12:38:46.596Z,3.23
2018-03-18T12:41:14.957Z,3.20
2018-03-18T12:43:43.365Z,2.50
2018-03-18T12:46:11.715Z,3.33
2018-03-18T12:48:40.079Z,3.40
2018-03-18T12:51:08.456Z,3.00
2018-03-18T12:53:36.837Z,2.70
2018-03-18T12:56:05.291Z,3.30
2018-03-18T12:58:34.731Z,3.10
2018-03-18T13:01:03.165Z,2.80
2018-03-18T13:03:31.524Z,3.43
2018-03-18T13:06:00.631Z,2.87
2018-03-18T13:08:29.699Z,3.50
2018-03-18T13:10:58.017Z,3.30
2018-03-18T13:13:27.190Z,2.50
2018-03-18T13:15:55.553Z,2.90
2018-03-18T13:18:23.857Z,3.30
2018-03-18T13:20:52.171Z,2.50
2018-03-18T13:23:20.475Z,2.90
2018-03-18T13:25:48.827Z,3.60
2018-03-18T13:28:17.189Z,2.80
2018-03-18T13:30:45.503Z,2.80
2018-03-18T13:33:13.885Z,2.90
2018-03-18T13:35:42.966Z,3.17
2018-03-18T13:38:12.072Z,2.30
2018-03-18T13:40:41.171Z,2.63
2018-03-18T13:43:09.512Z,2.70
2018-03-18T13:45:37.922Z,3.40
2018-03-18T13:48:06.256Z,2.80
2018-03-18T13:50:36.196Z,3.20
2018-03-18T13:53:04.527Z,2.83
2018-03-18T13:55:32.849Z,1.97
2018-03-18T13:58:01.228Z,2.67
2018-03-18T14:00:29.534Z,2.83
2018-03-18T14:02:57.916Z,2.30
2018-03-18T14:05:26.224Z,3.30
2018-03-18T14:07:55.335Z,2.77
2018-03-18T14:10:24.493Z,2.57
2018-03-18T14:12:52.803Z,2.70
2018-03-18T14:15:21.351Z,2.07
2018-03-18T14:17:49.650Z,2.20
2018-03-18T14:20:18.019Z,2.37
2018-03-18T14:22:46.299Z,2.63
2018-03-18T14:25:14.623Z,3.00
2018-03-18T14:27:42.982Z,2.60
2018-03-18T14:30:11.295Z,2.63
2018-03-18T14:32:39.664Z,2.43
2018-03-18T14:35:08.792Z,2.40
2018-03-18T14:37:37.135Z,2.50
2018-03-18T14:40:05.730Z,1.93
2018-03-18T14:42:34.060Z,2.37
2018-03-18T14:45:13.378Z,2.57
2018-03-18T14:47:42.492Z,2.40
2018-03-18T14:50:10.866Z,2.07
2018-03-18T14:52:39.262Z,2.30
2018-03-18T14:55:07.603Z,2.33
2018-03-18T14:57:35.998Z,2.20
2018-03-18T15:00:04.361Z,2.37
2018-03-18T15:02:32.820Z,2.80
2018-03-18T15:05:01.126Z,2.77
2018-03-18T15:07:29.437Z,2.07
2018-03-18T15:09:57.760Z,3.40
2018-03-18T15:12:26.049Z,2.27
2018-03-18T15:14:54.520Z,1.87
2018-03-18T15:17:23.592Z,2.43
2018-03-18T15:19:51.915Z,2.60
2018-03-18T15:22:21.004Z,2.30
2018-03-18T15:24:49.339Z,3.17
2018-03-18T15:27:17.748Z,2.47
2018-03-18T15:29:46.063Z,2.43
2018-03-18T15:32:14.452Z,2.80
2018-03-18T15:34:42.774Z,3.43
2018-03-18T15:37:11.139Z,1.40
2018-03-18T15:39:39.454Z,1.97
2018-03-18T15:42:07.804Z,1.70
2018-03-18T15:44:36.520Z,2.20
2018-03-18T15:47:04.855Z,2.20
2018-03-18T15:49:33.932Z,1.93
2018-03-18T15:52:02.249Z,1.80
2018-03-18T15:54:31.335Z,1.90
2018-03-18T15:56:59.696Z,1.50
2018-03-18T15:59:28.006Z,2.03
2018-03-18T16:01:56.338Z,2.27
2018-03-18T16:04:25.430Z,2.13
2018-03-18T16:06:54.607Z,1.60
2018-03-18T16:09:22.998Z,1.80
2018-03-18T16:11:51.345Z,1.73
2018-03-18T16:14:20.431Z,1.97
2018-03-18T16:16:48.756Z,1.73
2018-03-18T16:19:17.069Z,1.27
2018-03-18T16:21:45.452Z,2.00
2018-03-18T16:24:13.782Z,4.23
2018-03-18T16:26:42.118Z,1.70
2018-03-18T16:29:22.139Z,1.90
2018-03-18T16:31:50.449Z,1.70
2018-03-18T16:34:19.524Z,1.60
2018-03-18T16:36:47.855Z,1.80
2018-03-18T16:39:16.955Z,1.73
2018-03-18T16:41:46.061Z,1.50
2018-03-18T16:44:14.360Z,2.30
2018-03-18T16:46:42.769Z,1.20
2018-03-18T16:49:11.098Z,2.10
2018-03-18T16:51:39.461Z,1.50
2018-03-18T16:54:08.568Z,1.30
2018-03-18T16:56:36.888Z,1.10
2018-03-18T16:59:05.216Z,1.73
2018-03-18T17:01:33.609Z,1.53
2018-03-18T17:04:02.719Z,2.17
2018-03-18T17:06:31.933Z,1.63
2018-03-18T17:09:00.264Z,1.90
2018-03-18T17:11:28.618Z,1.90
2018-03-18T17:13:57.832Z,1.77
2018-03-18T17:16:26.911Z,1.13
2018-03-18T17:18:55.218Z,1.97
2018-03-18T17:21:23.540Z,1.77
2018-03-18T17:23:51.954Z,2.00
2018-03-18T17:26:20.471Z,1.70
2018-03-18T17:28:48.780Z,1.57
2018-03-18T17:31:17.199Z,1.50
2018-03-18T17:33:45.509Z,1.50
2018-03-18T17:36:13.834Z,1.70
2018-03-18T17:38:42.205Z,1.60
2018-03-18T17:41:10.551Z,1.30
2018-03-18T17:43:38.961Z,1.90
2018-03-18T17:46:19.776Z,1.50
2018-03-18T17:48:59.843Z,1.43
2018-03-18T17:51:40.073Z,1.00
2018-03-18T17:54:20.929Z,1.57
2018-03-18T17:56:49.263Z,2.03
2018-03-18T17:59:17.586Z,2.47
2018-03-18T18:01:45.896Z,1.30
2018-03-18T18:04:14.246Z,1.43
2018-03-18T18:06:42.570Z,2.20
2018-03-18T18:09:10.936Z,1.90
2018-03-18T18:11:39.272Z,2.07
2018-03-18T18:14:07.761Z,1.50
2018-03-18T18:16:36.102Z,1.63
2018-03-18T18:19:04.541Z,1.30
2018-03-18T18:21:32.909Z,2.23
2018-03-18T18:24:01.251Z,1.50
2018-03-18T18:26:30.314Z,2.40
2018-03-18T18:28:58.689Z,1.80
2018-03-18T18:31:27.035Z,2.53
2018-03-18T18:33:55.396Z,2.00
2018-03-18T18:36:23.835Z,1.80
2018-03-18T18:38:53.143Z,1.63
2018-03-18T18:41:22.264Z,2.10
2018-03-18T18:43:50.613Z,2.17
2018-03-18T18:46:19.049Z,1.93
2018-03-18T18:48:47.379Z,3.17
2018-03-18T18:51:15.718Z,2.17
2018-03-18T18:53:44.886Z,2.10
2018-03-18T18:56:13.217Z,2.03
2018-03-18T18:58:42.305Z,1.80
2018-03-18T19:01:10.657Z,2.00
2018-03-18T19:03:39.040Z,1.87
2018-03-18T19:06:07.463Z,2.20
2018-03-18T19:08:36.917Z,2.17
2018-03-18T19:11:06.059Z,1.53
2018-03-18T19:13:34.358Z,2.40
2018-03-18T19:16:02.772Z,2.60
2018-03-18T19:18:31.088Z,2.00
2018-03-18T19:20:59.380Z,2.40
2018-03-18T19:23:28.463Z,1.67
2018-03-18T19:25:56.783Z,2.90
2018-03-18T19:28:25.086Z,1.70
2018-03-18T19:30:54.146Z,2.20
2018-03-18T19:33:22.473Z,1.77
2018-03-18T19:35:51.533Z,2.20
2018-03-18T19:38:19.840Z,1.83
2018-03-18T19:40:48.136Z,1.93
2018-03-18T19:43:16.565Z,2.30
2018-03-18T19:45:45.627Z,2.30
2018-03-18T19:48:13.969Z,1.63
2018-03-18T19:50:42.314Z,1.30
2018-03-18T19:53:10.628Z,2.00
2018-03-18T19:55:39.731Z,2.23
2018-03-18T19:58:08.061Z,2.30
2018-03-18T20:00:36.384Z,1.87
2018-03-18T20:03:04.740Z,2.83
2018-03-18T20:05:33.048Z,1.43
2018-03-18T20:08:01.397Z,1.17
2018-03-18T20:10:29.816Z,2.20
2018-03-18T20:12:58.203Z,2.50
2018-03-18T20:15:26.525Z,2.23
2018-03-18T20:17:54.844Z,1.87
2018-03-18T20:20:23.289Z,2.13
2018-03-18T20:22:51.607Z,1.83
2018-03-18T20:25:19.924Z,1.33
2018-03-18T20:27:48.256Z,2.13
2018-03-18T20:30:16.596Z,2.20
2018-03-18T20:32:44.964Z,1.50
2018-03-18T20:35:13.337Z,1.60
2018-03-18T20:37:41.688Z,2.00
2018-03-18T20:40:10.085Z,2.60
2018-03-18T20:42:39.282Z,3.27
2018-03-18T20:45:07.645Z,1.67
2018-03-18T20:47:37.148Z,2.20
2018-03-18T20:50:06.466Z,2.00
2018-03-18T20:52:34.805Z,2.13
2018-03-18T20:55:03.999Z,2.37
2018-03-18T20:57:32.379Z,3.13
2018-03-18T21:00:00.734Z,1.70
2018-03-18T21:02:29.172Z,2.20
2018-03-18T21:04:57.551Z,2.30
2018-03-18T21:07:25.899Z,2.87
2018-03-18T21:09:54.434Z,1.87
2018-03-18T21:12:22.765Z,2.47
2018-03-18T21:14:51.886Z,2.07
2018-03-18T21:17:21.074Z,2.73
2018-03-18T21:19:49.410Z,2.97
2018-03-18T21:22:17.793Z,2.13
2018-03-18T21:24:46.185Z,2.40
2018-03-18T21:27:14.517Z,2.80
2018-03-18T21:29:42.844Z,3.57
2018-03-18T21:32:12.032Z,2.97
2018-03-18T21:34:40.367Z,2.00
2018-03-18T21:37:08.787Z,2.53
2018-03-18T21:39:37.172Z,2.53
2018-03-18T21:42:05.529Z,2.60
2018-03-18T21:44:33.947Z,2.30
2018-03-18T21:47:02.361Z,1.97
2018-03-18T21:49:30.700Z,2.40
2018-03-18T21:51:59.779Z,2.00
2018-03-18T21:54:28.164Z,2.93
2018-03-18T21:56:56.497Z,2.07
2018-03-18T21:59:25.605Z,2.40
2018-03-18T22:01:54.744Z,2.33
2018-03-18T22:04:23.068Z,2.33
2018-03-18T22:06:51.482Z,2.33
2018-03-18T22:09:19.900Z,2.33
2018-03-18T22:11:48.257Z,1.93
2018-03-18T22:14:16.648Z,2.30
2018-03-18T22:16:45.018Z,2.00
2018-03-18T22:19:13.385Z,2.77
2018-03-18T22:21:42.094Z,2.70
2018-03-18T22:24:10.447Z,2.77
2018-03-18T22:26:39.546Z,2.73
2018-03-18T22:29:07.964Z,3.40
2018-03-18T22:31:36.285Z,1.83
2018-03-18T22:34:04.603Z,2.30
2018-03-18T22:36:32.926Z,2.27
2018-03-18T22:39:02.024Z,3.00
2018-03-18T22:41:31.111Z,2.13
2018-03-18T22:43:59.422Z,2.07
2018-03-18T22:46:28.507Z,2.77
2018-03-18T22:48:56.806Z,2.77
2018-03-18T22:51:25.212Z,3.20
2018-03-18T22:53:53.530Z,3.87
2018-03-18T22:56:21.843Z,2.23
2018-03-18T22:58:50.899Z,2.90
2018-03-18T23:01:19.980Z,2.40
2018-03-18T23:03:48.371Z,2.43
2018-03-18T23:06:16.695Z,2.90
2018-03-18T23:08:45.772Z,3.27
2018-03-18T23:11:14.175Z,2.87
2018-03-18T23:13:42.474Z,2.70
2018-03-18T23:16:11.228Z,2.67
2018-03-18T23:18:39.538Z,3.23
2018-03-18T23:21:07.959Z,2.77
2018-03-18T23:23:37.045Z,3.60
2018-03-18T23:26:05.368Z,3.60
2018-03-18T23:28:34.494Z,3.33
2018-03-18T23:31:02.795Z,2.27
2018-03-18T23:33:31.094Z,2.60
2018-03-18T23:35:59.395Z,3.00
2018-03-18T23:38:27.691Z,2.17
2018-03-18T23:40:56.031Z,3.23
2018-03-18T23:43:25.093Z,2.10
2018-03-18T23:45:53.381Z,2.80
2018-03-18T23:48:21.678Z,3.10
2018-03-18T23:50:49.999Z,2.70
2018-03-18T23:53:19.060Z,2.43
2018-03-18T23:55:47.365Z,3.30
2018-03-18T23:58:15.681Z,3.37
